sensor_id;sensor_type;location;lat;lon;timestamp;P1;durP1;ratioP1;P2;durP2;ratioP2
6519;SDS011;3293;51.690;5.982;2022-11-15T00:04:13;25.77;;;18.40;;
6519;SDS011;3293;51.690;5.982;2022-11-15T00:09:13;23.50;;;17.53;;
6519;SDS011;3293;51.690;5.982;2022-11-15T00:14:13;26.27;;;18.90;;
6519;SDS011;3293;51.690;5.982;2022-11-15T00:19:13;25.93;;;18.10;;
6519;SDS011;3293;51.690;5.982;2022-11-15T00:24:13;24.50;;;18.37;;
6519;SDS011;3293;51.690;5.982;2022-11-15T00:29:13;27.40;;;17.60;;
6519;SDS011;3293;51.690;5.982;2022-11-15T00:34:13;28.80;;;17.33;;
6519;SDS011;3293;51.690;5.982;2022-11-15T00:39:13;27.10;;;17.67;;
6519;SDS011;3293;51.690;5.982;2022-11-15T00:44:13;27.57;;;17.70;;
6519;SDS011;3293;51.690;5.982;2022-11-15T00:49:13;26.93;;;19.10;;
6519;SDS011;3293;51.690;5.982;2022-11-15T00:54:13;25.63;;;17.67;;
6519;SDS011;3293;51.690;5.982;2022-11-15T00:59:13;28.80;;;18.80;;
6519;SDS011;3293;51.690;5.982;2022-11-15T01:04:13;23.13;;;17.73;;
6519;SDS011;3293;51.690;5.982;2022-11-15T01:09:13;25.63;;;17.90;;
6519;SDS011;3293;51.690;5.982;2022-11-15T01:14:13;26.63;;;18.50;;
6519;SDS011;3293;51.690;5.982;2022-11-15T01:19:13;23.37;;;17.73;;
6519;SDS011;3293;51.690;5.982;2022-11-15T01:24:13;25.20;;;17.93;;
6519;SDS011;3293;51.690;5.982;2022-11-15T01:29:13;23.30;;;17.53;;
6519;SDS011;3293;51.690;5.982;2022-11-15T01:34:13;25.13;;;17.50;;
6519;SDS011;3293;51.690;5.982;2022-11-15T01:39:14;23.27;;;17.43;;
6519;SDS011;3293;51.690;5.982;2022-11-15T01:49:33;26.17;;;19.27;;
6519;SDS011;3293;51.690;5.982;2022-11-15T01:54:37;30.17;;;19.00;;
6519;SDS011;3293;51.690;5.982;2022-11-15T01:59:38;26.13;;;18.93;;
6519;SDS011;3293;51.690;5.982;2022-11-15T02:04:43;28.17;;;18.13;;
6519;SDS011;3293;51.690;5.982;2022-11-15T02:09:45;26.03;;;19.10;;
6519;SDS011;3293;51.690;5.982;2022-11-15T02:14:47;28.77;;;19.43;;
6519;SDS011;3293;51.690;5.982;2022-11-15T02:20:07;26.67;;;19.10;;
6519;SDS011;3293;51.690;5.982;2022-11-15T02:30:29;32.80;;;19.77;;
6519;SDS011;3293;51.690;5.982;2022-11-15T02:35:41;27.43;;;18.73;;
6519;SDS011;3293;51.690;5.982;2022-11-15T02:41:17;33.27;;;20.20;;
6519;SDS011;3293;51.690;5.982;2022-11-15T02:52:15;29.77;;;20.40;;
6519;SDS011;3293;51.690;5.982;2022-11-15T02:57:17;32.83;;;21.63;;
6519;SDS011;3293;51.690;5.982;2022-11-15T03:08:06;26.83;;;21.40;;
6519;SDS011;3293;51.690;5.982;2022-11-15T03:18:33;31.63;;;22.90;;
6519;SDS011;3293;51.690;5.982;2022-11-15T03:23:38;31.13;;;21.20;;
6519;SDS011;3293;51.690;5.982;2022-11-15T03:28:55;30.90;;;22.07;;
6519;SDS011;3293;51.690;5.982;2022-11-15T03:33:59;29.83;;;20.93;;
6519;SDS011;3293;51.690;5.982;2022-11-15T03:39:05;30.97;;;21.07;;
6519;SDS011;3293;51.690;5.982;2022-11-15T03:44:18;29.73;;;20.67;;
6519;SDS011;3293;51.690;5.982;2022-11-15T03:49:27;32.67;;;22.47;;
6519;SDS011;3293;51.690;5.982;2022-11-15T03:54:31;27.40;;;20.20;;
6519;SDS011;3293;51.690;5.982;2022-11-15T03:59:31;31.73;;;20.77;;
6519;SDS011;3293;51.690;5.982;2022-11-15T04:04:30;35.83;;;21.27;;
6519;SDS011;3293;51.690;5.982;2022-11-15T04:09:30;30.97;;;21.20;;
6519;SDS011;3293;51.690;5.982;2022-11-15T04:14:30;34.93;;;23.60;;
6519;SDS011;3293;51.690;5.982;2022-11-15T04:19:30;29.13;;;21.97;;
6519;SDS011;3293;51.690;5.982;2022-11-15T04:24:49;34.47;;;22.00;;
6519;SDS011;3293;51.690;5.982;2022-11-15T04:29:49;29.23;;;21.70;;
6519;SDS011;3293;51.690;5.982;2022-11-15T04:34:49;27.93;;;21.10;;
6519;SDS011;3293;51.690;5.982;2022-11-15T04:39:49;31.03;;;21.80;;
6519;SDS011;3293;51.690;5.982;2022-11-15T04:44:49;31.60;;;21.67;;
6519;SDS011;3293;51.690;5.982;2022-11-15T04:49:49;28.17;;;20.60;;
6519;SDS011;3293;51.690;5.982;2022-11-15T04:54:49;32.53;;;20.80;;
6519;SDS011;3293;51.690;5.982;2022-11-15T04:59:49;33.63;;;20.50;;
6519;SDS011;3293;51.690;5.982;2022-11-15T05:04:48;31.23;;;20.63;;
6519;SDS011;3293;51.690;5.982;2022-11-15T05:09:48;26.90;;;20.37;;
6519;SDS011;3293;51.690;5.982;2022-11-15T05:14:48;26.03;;;19.47;;
6519;SDS011;3293;51.690;5.982;2022-11-15T05:19:48;26.63;;;19.23;;
6519;SDS011;3293;51.690;5.982;2022-11-15T05:24:48;30.10;;;20.37;;
6519;SDS011;3293;51.690;5.982;2022-11-15T05:29:48;24.57;;;19.13;;
6519;SDS011;3293;51.690;5.982;2022-11-15T05:34:48;28.43;;;19.87;;
6519;SDS011;3293;51.690;5.982;2022-11-15T05:39:48;28.47;;;19.83;;
6519;SDS011;3293;51.690;5.982;2022-11-15T05:44:48;29.83;;;19.73;;
6519;SDS011;3293;51.690;5.982;2022-11-15T05:49:49;32.33;;;21.20;;
6519;SDS011;3293;51.690;5.982;2022-11-15T05:54:51;32.13;;;20.73;;
6519;SDS011;3293;51.690;5.982;2022-11-15T05:59:51;36.83;;;22.30;;
6519;SDS011;3293;51.690;5.982;2022-11-15T06:04:53;33.43;;;21.13;;
6519;SDS011;3293;51.690;5.982;2022-11-15T06:09:52;35.47;;;20.50;;
6519;SDS011;3293;51.690;5.982;2022-11-15T06:14:52;29.70;;;20.47;;
6519;SDS011;3293;51.690;5.982;2022-11-15T06:19:52;31.20;;;21.97;;
6519;SDS011;3293;51.690;5.982;2022-11-15T06:24:52;31.43;;;21.23;;
6519;SDS011;3293;51.690;5.982;2022-11-15T06:29:52;30.33;;;21.80;;
6519;SDS011;3293;51.690;5.982;2022-11-15T06:34:52;32.37;;;22.10;;
6519;SDS011;3293;51.690;5.982;2022-11-15T06:39:52;33.70;;;23.33;;
6519;SDS011;3293;51.690;5.982;2022-11-15T06:44:52;34.57;;;21.90;;
6519;SDS011;3293;51.690;5.982;2022-11-15T06:49:52;37.97;;;22.07;;
6519;SDS011;3293;51.690;5.982;2022-11-15T06:54:52;28.67;;;21.67;;
6519;SDS011;3293;51.690;5.982;2022-11-15T06:59:52;41.00;;;25.60;;
6519;SDS011;3293;51.690;5.982;2022-11-15T07:04:52;33.67;;;24.07;;
6519;SDS011;3293;51.690;5.982;2022-11-15T07:09:52;35.03;;;24.23;;
6519;SDS011;3293;51.690;5.982;2022-11-15T07:14:52;36.40;;;24.10;;
6519;SDS011;3293;51.690;5.982;2022-11-15T07:19:52;36.27;;;23.43;;
6519;SDS011;3293;51.690;5.982;2022-11-15T07:24:52;36.60;;;24.50;;
6519;SDS011;3293;51.690;5.982;2022-11-15T07:29:52;33.80;;;22.70;;
6519;SDS011;3293;51.690;5.982;2022-11-15T07:34:52;31.63;;;19.77;;
6519;SDS011;3293;51.690;5.982;2022-11-15T07:39:52;23.50;;;17.97;;
6519;SDS011;3293;51.690;5.982;2022-11-15T07:44:52;30.10;;;17.37;;
6519;SDS011;3293;51.690;5.982;2022-11-15T07:49:52;27.90;;;16.83;;
6519;SDS011;3293;51.690;5.982;2022-11-15T07:54:52;21.23;;;14.97;;
6519;SDS011;3293;51.690;5.982;2022-11-15T07:59:51;22.50;;;14.17;;
6519;SDS011;3293;51.690;5.982;2022-11-15T08:04:52;20.60;;;14.40;;
6519;SDS011;3293;51.690;5.982;2022-11-15T08:09:52;23.60;;;15.20;;
6519;SDS011;3293;51.690;5.982;2022-11-15T08:14:52;19.30;;;13.80;;
6519;SDS011;3293;51.690;5.982;2022-11-15T08:19:52;19.57;;;14.33;;
6519;SDS011;3293;51.690;5.982;2022-11-15T08:24:55;17.43;;;14.00;;
6519;SDS011;3293;51.690;5.982;2022-11-15T08:29:55;21.50;;;15.50;;
6519;SDS011;3293;51.690;5.982;2022-11-15T08:34:56;21.40;;;14.33;;
6519;SDS011;3293;51.690;5.982;2022-11-15T08:39:55;19.10;;;13.23;;
6519;SDS011;3293;51.690;5.982;2022-11-15T08:44:55;18.30;;;13.10;;
6519;SDS011;3293;51.690;5.982;2022-11-15T08:49:55;19.97;;;12.77;;
6519;SDS011;3293;51.690;5.982;2022-11-15T08:54:55;17.73;;;12.57;;
6519;SDS011;3293;51.690;5.982;2022-11-15T08:59:55;15.03;;;11.80;;
6519;SDS011;3293;51.690;5.982;2022-11-15T09:04:56;18.17;;;12.30;;
6519;SDS011;3293;51.690;5.982;2022-11-15T09:09:56;17.70;;;12.20;;
6519;SDS011;3293;51.690;5.982;2022-11-15T09:14:56;18.17;;;12.13;;
6519;SDS011;3293;51.690;5.982;2022-11-15T09:19:57;17.43;;;12.53;;
6519;SDS011;3293;51.690;5.982;2022-11-15T09:24:57;21.17;;;11.27;;
6519;SDS011;3293;51.690;5.982;2022-11-15T09:29:57;13.77;;;10.77;;
6519;SDS011;3293;51.690;5.982;2022-11-15T09:34:57;12.67;;;8.70;;
6519;SDS011;3293;51.690;5.982;2022-11-15T09:39:57;11.27;;;8.57;;
6519;SDS011;3293;51.690;5.982;2022-11-15T09:50:11;9.83;;;6.23;;
6519;SDS011;3293;51.690;5.982;2022-11-15T09:55:13;9.07;;;5.87;;
6519;SDS011;3293;51.690;5.982;2022-11-15T10:00:40;10.97;;;6.70;;
6519;SDS011;3293;51.690;5.982;2022-11-15T10:05:48;8.33;;;6.10;;
6519;SDS011;3293;51.690;5.982;2022-11-15T10:10:57;8.87;;;5.90;;
6519;SDS011;3293;51.690;5.982;2022-11-15T10:16:07;7.93;;;5.60;;
6519;SDS011;3293;51.690;5.982;2022-11-15T10:22:00;7.67;;;4.77;;
6519;SDS011;3293;51.690;5.982;2022-11-15T10:26:59;11.20;;;4.67;;
6519;SDS011;3293;51.690;5.982;2022-11-15T10:32:00;6.20;;;3.83;;
6519;SDS011;3293;51.690;5.982;2022-11-15T10:37:00;5.10;;;3.73;;
6519;SDS011;3293;51.690;5.982;2022-11-15T10:47:31;4.13;;;3.27;;
6519;SDS011;3293;51.690;5.982;2022-11-15T10:52:32;4.73;;;2.97;;
6519;SDS011;3293;51.690;5.982;2022-11-15T10:57:38;3.97;;;2.77;;
6519;SDS011;3293;51.690;5.982;2022-11-15T11:02:41;3.37;;;2.53;;
6519;SDS011;3293;51.690;5.982;2022-11-15T11:07:56;5.63;;;2.40;;
6519;SDS011;3293;51.690;5.982;2022-11-15T11:13:14;3.90;;;2.90;;
6519;SDS011;3293;51.690;5.982;2022-11-15T11:18:25;5.70;;;2.97;;
6519;SDS011;3293;51.690;5.982;2022-11-15T11:23:41;4.23;;;2.67;;
6519;SDS011;3293;51.690;5.982;2022-11-15T11:28:53;4.60;;;2.23;;
6519;SDS011;3293;51.690;5.982;2022-11-15T11:39:11;5.90;;;2.23;;
6519;SDS011;3293;51.690;5.982;2022-11-15T11:49:59;4.50;;;2.20;;
6519;SDS011;3293;51.690;5.982;2022-11-15T11:55:16;3.53;;;1.90;;
6519;SDS011;3293;51.690;5.982;2022-11-15T12:00:30;2.80;;;2.00;;
6519;SDS011;3293;51.690;5.982;2022-11-15T12:05:36;2.83;;;2.10;;
6519;SDS011;3293;51.690;5.982;2022-11-15T12:10:40;5.70;;;2.10;;
6519;SDS011;3293;51.690;5.982;2022-11-15T12:15:53;4.27;;;2.27;;
6519;SDS011;3293;51.690;5.982;2022-11-15T12:21:13;4.70;;;2.00;;
6519;SDS011;3293;51.690;5.982;2022-11-15T12:26:21;2.57;;;1.90;;
6519;SDS011;3293;51.690;5.982;2022-11-15T12:36:38;2.67;;;1.83;;
6519;SDS011;3293;51.690;5.982;2022-11-15T12:41:42;3.07;;;2.00;;
6519;SDS011;3293;51.690;5.982;2022-11-15T12:52:21;4.63;;;1.90;;
6519;SDS011;3293;51.690;5.982;2022-11-15T12:57:27;6.00;;;2.00;;
6519;SDS011;3293;51.690;5.982;2022-11-15T13:12:59;5.57;;;1.80;;
6519;SDS011;3293;51.690;5.982;2022-11-15T13:18:23;2.77;;;1.90;;
6519;SDS011;3293;51.690;5.982;2022-11-15T13:23:29;2.77;;;1.77;;
6519;SDS011;3293;51.690;5.982;2022-11-15T13:28:31;5.27;;;1.70;;
6519;SDS011;3293;51.690;5.982;2022-11-15T13:33:55;4.33;;;1.90;;
6519;SDS011;3293;51.690;5.982;2022-11-15T13:44:17;3.63;;;1.83;;
6519;SDS011;3293;51.690;5.982;2022-11-15T13:49:22;3.63;;;1.70;;
6519;SDS011;3293;51.690;5.982;2022-11-15T13:54:37;3.77;;;2.20;;
6519;SDS011;3293;51.690;5.982;2022-11-15T13:59:45;2.37;;;1.80;;
6519;SDS011;3293;51.690;5.982;2022-11-15T14:04:52;5.93;;;1.93;;
6519;SDS011;3293;51.690;5.982;2022-11-15T14:09:55;5.07;;;2.00;;
6519;SDS011;3293;51.690;5.982;2022-11-15T14:14:56;2.77;;;2.10;;
6519;SDS011;3293;51.690;5.982;2022-11-15T14:20:27;2.37;;;1.67;;
6519;SDS011;3293;51.690;5.982;2022-11-15T14:25:34;3.87;;;1.63;;
6519;SDS011;3293;51.690;5.982;2022-11-15T14:30:34;4.50;;;2.00;;
6519;SDS011;3293;51.690;5.982;2022-11-15T14:35:37;5.97;;;1.90;;
6519;SDS011;3293;51.690;5.982;2022-11-15T14:40:38;4.77;;;2.03;;
6519;SDS011;3293;51.690;5.982;2022-11-15T14:45:38;4.47;;;2.00;;
6519;SDS011;3293;51.690;5.982;2022-11-15T14:50:39;5.80;;;2.40;;
6519;SDS011;3293;51.690;5.982;2022-11-15T14:55:39;6.40;;;2.70;;
6519;SDS011;3293;51.690;5.982;2022-11-15T15:00:39;5.33;;;2.53;;
6519;SDS011;3293;51.690;5.982;2022-11-15T15:05:42;9.50;;;2.53;;
6519;SDS011;3293;51.690;5.982;2022-11-15T15:10:43;5.53;;;2.23;;
6519;SDS011;3293;51.690;5.982;2022-11-15T15:15:45;5.33;;;2.50;;
6519;SDS011;3293;51.690;5.982;2022-11-15T15:20:48;5.87;;;2.47;;
6519;SDS011;3293;51.690;5.982;2022-11-15T15:25:55;2.67;;;2.20;;
6519;SDS011;3293;51.690;5.982;2022-11-15T15:30:55;7.77;;;2.50;;
6519;SDS011;3293;51.690;5.982;2022-11-15T15:35:55;4.17;;;2.20;;
6519;SDS011;3293;51.690;5.982;2022-11-15T15:40:55;5.43;;;2.67;;
6519;SDS011;3293;51.690;5.982;2022-11-15T15:45:55;5.10;;;2.40;;
6519;SDS011;3293;51.690;5.982;2022-11-15T15:50:55;8.50;;;2.70;;
6519;SDS011;3293;51.690;5.982;2022-11-15T15:55:56;4.17;;;3.00;;
6519;SDS011;3293;51.690;5.982;2022-11-15T16:00:57;6.23;;;2.70;;
6519;SDS011;3293;51.690;5.982;2022-11-15T16:05:57;4.50;;;2.63;;
6519;SDS011;3293;51.690;5.982;2022-11-15T16:10:57;6.23;;;3.03;;
6519;SDS011;3293;51.690;5.982;2022-11-15T16:15:57;5.33;;;2.57;;
6519;SDS011;3293;51.690;5.982;2022-11-15T16:20:57;6.60;;;2.90;;
6519;SDS011;3293;51.690;5.982;2022-11-15T16:25:59;5.97;;;3.20;;
6519;SDS011;3293;51.690;5.982;2022-11-15T16:31:11;5.67;;;3.27;;
6519;SDS011;3293;51.690;5.982;2022-11-15T16:36:22;9.83;;;3.33;;
6519;SDS011;3293;51.690;5.982;2022-11-15T16:41:26;5.13;;;3.30;;
6519;SDS011;3293;51.690;5.982;2022-11-15T16:46:26;6.47;;;3.67;;
6519;SDS011;3293;51.690;5.982;2022-11-15T16:51:28;4.53;;;3.40;;
6519;SDS011;3293;51.690;5.982;2022-11-15T16:56:28;5.17;;;3.60;;
6519;SDS011;3293;51.690;5.982;2022-11-15T17:01:30;6.57;;;3.90;;
6519;SDS011;3293;51.690;5.982;2022-11-15T17:06:32;6.90;;;3.53;;
6519;SDS011;3293;51.690;5.982;2022-11-15T17:11:32;4.77;;;3.67;;
6519;SDS011;3293;51.690;5.982;2022-11-15T17:16:32;6.20;;;3.73;;
6519;SDS011;3293;51.690;5.982;2022-11-15T17:21:34;10.23;;;4.20;;
6519;SDS011;3293;51.690;5.982;2022-11-15T17:26:34;7.43;;;4.60;;
6519;SDS011;3293;51.690;5.982;2022-11-15T17:31:35;7.13;;;4.57;;
6519;SDS011;3293;51.690;5.982;2022-11-15T17:36:35;4.97;;;4.43;;
6519;SDS011;3293;51.690;5.982;2022-11-15T17:41:35;8.73;;;4.80;;
6519;SDS011;3293;51.690;5.982;2022-11-15T17:46:35;7.57;;;4.97;;
6519;SDS011;3293;51.690;5.982;2022-11-15T17:51:35;6.00;;;4.60;;
6519;SDS011;3293;51.690;5.982;2022-11-15T17:56:37;7.00;;;5.40;;
6519;SDS011;3293;51.690;5.982;2022-11-15T18:01:38;8.10;;;5.70;;
6519;SDS011;3293;51.690;5.982;2022-11-15T18:06:41;6.43;;;4.83;;
6519;SDS011;3293;51.690;5.982;2022-11-15T18:11:41;11.40;;;6.67;;
6519;SDS011;3293;51.690;5.982;2022-11-15T18:16:43;10.43;;;5.83;;
6519;SDS011;3293;51.690;5.982;2022-11-15T18:21:44;7.63;;;5.50;;
6519;SDS011;3293;51.690;5.982;2022-11-15T18:26:56;7.70;;;6.10;;
6519;SDS011;3293;51.690;5.982;2022-11-15T18:31:57;6.77;;;5.90;;
6519;SDS011;3293;51.690;5.982;2022-11-15T18:36:57;7.77;;;5.63;;
6519;SDS011;3293;51.690;5.982;2022-11-15T18:41:58;9.37;;;6.50;;
6519;SDS011;3293;51.690;5.982;2022-11-15T18:46:59;8.50;;;6.20;;
6519;SDS011;3293;51.690;5.982;2022-11-15T18:51:58;9.87;;;5.90;;
6519;SDS011;3293;51.690;5.982;2022-11-15T18:56:58;10.30;;;6.90;;
6519;SDS011;3293;51.690;5.982;2022-11-15T19:01:58;8.83;;;6.17;;
6519;SDS011;3293;51.690;5.982;2022-11-15T19:06:58;8.57;;;6.47;;
6519;SDS011;3293;51.690;5.982;2022-11-15T19:11:58;9.47;;;6.50;;
6519;SDS011;3293;51.690;5.982;2022-11-15T19:16:59;8.47;;;6.43;;
6519;SDS011;3293;51.690;5.982;2022-11-15T19:21:59;8.67;;;6.57;;
6519;SDS011;3293;51.690;5.982;2022-11-15T19:27:02;8.33;;;6.93;;
6519;SDS011;3293;51.690;5.982;2022-11-15T19:32:02;9.80;;;7.03;;
6519;SDS011;3293;51.690;5.982;2022-11-15T19:37:03;11.60;;;8.20;;
6519;SDS011;3293;51.690;5.982;2022-11-15T19:42:03;10.33;;;7.53;;
6519;SDS011;3293;51.690;5.982;2022-11-15T19:47:03;10.90;;;7.20;;
6519;SDS011;3293;51.690;5.982;2022-11-15T19:52:05;9.83;;;7.00;;
6519;SDS011;3293;51.690;5.982;2022-11-15T19:57:05;8.40;;;6.60;;
6519;SDS011;3293;51.690;5.982;2022-11-15T20:02:05;9.00;;;7.33;;
6519;SDS011;3293;51.690;5.982;2022-11-15T20:07:07;8.27;;;6.60;;
6519;SDS011;3293;51.690;5.982;2022-11-15T20:12:07;10.47;;;7.13;;
6519;SDS011;3293;51.690;5.982;2022-11-15T20:17:07;10.13;;;7.50;;
6519;SDS011;3293;51.690;5.982;2022-11-15T20:22:07;13.10;;;7.67;;
6519;SDS011;3293;51.690;5.982;2022-11-15T20:27:08;10.47;;;8.03;;
6519;SDS011;3293;51.690;5.982;2022-11-15T20:32:08;11.07;;;7.90;;
6519;SDS011;3293;51.690;5.982;2022-11-15T20:37:10;11.53;;;7.90;;
6519;SDS011;3293;51.690;5.982;2022-11-15T20:42:11;9.13;;;8.10;;
6519;SDS011;3293;51.690;5.982;2022-11-15T20:47:13;11.00;;;8.10;;
6519;SDS011;3293;51.690;5.982;2022-11-15T20:52:14;11.37;;;8.67;;
6519;SDS011;3293;51.690;5.982;2022-11-15T20:57:14;13.10;;;9.43;;
6519;SDS011;3293;51.690;5.982;2022-11-15T21:02:14;11.90;;;8.83;;
6519;SDS011;3293;51.690;5.982;2022-11-15T21:07:14;11.03;;;9.80;;
6519;SDS011;3293;51.690;5.982;2022-11-15T21:12:14;12.97;;;9.57;;
6519;SDS011;3293;51.690;5.982;2022-11-15T21:17:15;15.70;;;9.87;;
6519;SDS011;3293;51.690;5.982;2022-11-15T21:22:16;14.70;;;10.17;;
6519;SDS011;3293;51.690;5.982;2022-11-15T21:27:17;12.07;;;9.37;;
6519;SDS011;3293;51.690;5.982;2022-11-15T21:32:17;10.83;;;9.40;;
6519;SDS011;3293;51.690;5.982;2022-11-15T21:37:17;19.67;;;13.60;;
6519;SDS011;3293;51.690;5.982;2022-11-15T21:42:17;12.83;;;10.23;;
6519;SDS011;3293;51.690;5.982;2022-11-15T21:47:18;14.57;;;10.60;;
6519;SDS011;3293;51.690;5.982;2022-11-15T21:52:18;13.17;;;10.43;;
6519;SDS011;3293;51.690;5.982;2022-11-15T21:57:18;15.10;;;10.60;;
6519;SDS011;3293;51.690;5.982;2022-11-15T22:02:20;14.17;;;10.50;;
6519;SDS011;3293;51.690;5.982;2022-11-15T22:07:20;16.03;;;11.93;;
6519;SDS011;3293;51.690;5.982;2022-11-15T22:12:21;14.23;;;11.87;;
6519;SDS011;3293;51.690;5.982;2022-11-15T22:17:21;15.07;;;12.27;;
6519;SDS011;3293;51.690;5.982;2022-11-15T22:22:22;15.47;;;12.60;;
6519;SDS011;3293;51.690;5.982;2022-11-15T22:27:22;16.67;;;12.83;;
6519;SDS011;3293;51.690;5.982;2022-11-15T22:32:22;19.83;;;13.17;;
6519;SDS011;3293;51.690;5.982;2022-11-15T22:37:22;16.80;;;13.17;;
6519;SDS011;3293;51.690;5.982;2022-11-15T22:42:22;18.00;;;13.60;;
6519;SDS011;3293;51.690;5.982;2022-11-15T22:47:22;18.37;;;13.80;;
6519;SDS011;3293;51.690;5.982;2022-11-15T22:52:22;19.07;;;15.13;;
6519;SDS011;3293;51.690;5.982;2022-11-15T22:57:22;18.73;;;14.40;;
6519;SDS011;3293;51.690;5.982;2022-11-15T23:02:23;19.77;;;15.37;;
6519;SDS011;3293;51.690;5.982;2022-11-15T23:07:26;18.73;;;15.07;;
6519;SDS011;3293;51.690;5.982;2022-11-15T23:12:25;20.17;;;15.30;;
6519;SDS011;3293;51.690;5.982;2022-11-15T23:17:44;19.10;;;14.77;;
6519;SDS011;3293;51.690;5.982;2022-11-15T23:22:44;19.50;;;15.40;;
6519;SDS011;3293;51.690;5.982;2022-11-15T23:27:47;19.47;;;15.10;;
6519;SDS011;3293;51.690;5.982;2022-11-15T23:32:47;24.03;;;16.93;;
6519;SDS011;3293;51.690;5.982;2022-11-15T23:38:05;25.17;;;18.03;;
6519;SDS011;3293;51.690;5.982;2022-11-15T23:43:05;22.70;;;17.47;;
6519;SDS011;3293;51.690;5.982;2022-11-15T23:48:05;22.50;;;18.23;;
6519;SDS011;3293;51.690;5.982;2022-11-15T23:53:05;26.63;;;18.30;;
6519;SDS011;3293;51.690;5.982;2022-11-15T23:58:06;23.30;;;18.43;;
